createdAt,value
2022-11-29T00:01:06.638Z,101389.53
2022-11-29T00:04:11.948Z,101393.84
2022-11-29T00:07:16.625Z,101394.78
2022-11-29T00:10:21.296Z,101391.25
2022-11-29T00:13:25.652Z,101386.91
2022-11-29T00:16:30.587Z,101393.78
2022-11-29T00:19:36.802Z,101396.44
2022-11-29T00:22:41.297Z,101391.31
2022-11-29T00:25:45.982Z,101388.69
2022-11-29T00:28:50.429Z,101391.22
2022-11-29T00:31:55.068Z,101386.06
2022-11-29T00:34:59.933Z,101393.00
2022-11-29T00:38:06.010Z,101386.88
2022-11-29T00:41:11.364Z,101385.16
2022-11-29T00:44:20.221Z,101382.47
2022-11-29T00:47:24.983Z,101383.38
2022-11-29T00:50:29.649Z,101382.53
2022-11-29T00:53:35.948Z,101379.97
2022-11-29T00:56:40.409Z,101375.63
2022-11-29T00:59:45.060Z,101389.50
2022-11-29T01:02:49.682Z,101383.38
2022-11-29T01:06:05.628Z,101393.00
2022-11-29T01:09:10.083Z,101385.19
2022-11-29T01:12:14.406Z,101382.63
2022-11-29T01:15:19.099Z,101379.13
2022-11-29T01:18:24.591Z,101387.84
2022-11-29T01:21:29.821Z,101383.47
2022-11-29T01:24:34.681Z,101377.38
2022-11-29T01:27:40.164Z,101379.13
2022-11-29T01:30:46.626Z,101386.94
2022-11-29T01:34:00.512Z,101382.66
2022-11-29T01:37:08.601Z,101389.53
2022-11-29T01:40:14.090Z,101386.22
2022-11-29T01:43:19.126Z,101394.03
2022-11-29T01:46:23.897Z,101392.31
2022-11-29T01:49:42.270Z,101392.34
2022-11-29T01:52:48.470Z,101390.59
2022-11-29T01:56:02.613Z,101398.38
2022-11-29T01:59:11.824Z,101400.97
2022-11-29T02:02:27.167Z,101400.97
2022-11-29T02:05:33.525Z,101403.56
2022-11-29T02:08:42.482Z,101400.13
2022-11-29T02:12:27.706Z,101403.56
2022-11-29T02:15:41.619Z,101412.25
2022-11-29T02:19:11.370Z,101409.63
2022-11-29T02:22:35.710Z,101412.22
2022-11-29T02:25:49.320Z,101418.28
2022-11-29T02:29:58.253Z,101414.84
2022-11-29T02:33:26.117Z,101414.00
2022-11-29T02:36:42.608Z,101415.69
2022-11-29T02:40:23.013Z,101419.19
2022-11-29T02:43:57.945Z,101418.38
2022-11-29T02:47:47.065Z,101422.72
2022-11-29T02:51:25.938Z,101425.34
2022-11-29T02:54:57.810Z,101428.81
2022-11-29T02:58:38.317Z,101431.44
2022-11-29T03:01:55.962Z,101428.81
2022-11-29T03:05:17.206Z,101428.81
2022-11-29T03:08:52.772Z,101436.56
2022-11-29T03:12:16.662Z,101443.59
2022-11-29T03:15:29.424Z,101443.56
2022-11-29T03:19:04.218Z,101440.88
2022-11-29T03:22:31.634Z,101442.56
2022-11-29T03:25:51.052Z,101443.44
2022-11-29T03:29:26.271Z,101444.28
2022-11-29T03:32:57.181Z,101453.78
2022-11-29T03:36:18.820Z,101454.72
2022-11-29T03:39:38.372Z,101454.72
2022-11-29T03:43:08.884Z,101456.41
2022-11-29T03:46:35.789Z,101460.81
2022-11-29T03:49:59.784Z,101455.66
2022-11-29T03:53:22.738Z,101457.31
2022-11-29T03:56:35.341Z,101456.50
2022-11-29T04:00:07.565Z,101461.75
2022-11-29T04:03:56.757Z,101467.75
2022-11-29T04:07:24.607Z,101472.13
2022-11-29T04:10:47.897Z,101468.69
2022-11-29T04:14:30.652Z,101476.50
2022-11-29T04:18:15.838Z,101480.06
2022-11-29T04:21:41.717Z,101483.50
2022-11-29T04:25:33.021Z,101489.63
2022-11-29T04:29:20.254Z,101489.63
2022-11-29T04:33:14.701Z,101493.09
2022-11-29T04:36:38.770Z,101495.75
2022-11-29T04:40:20.741Z,101493.97
2022-11-29T04:44:10.501Z,101498.28
2022-11-29T04:47:35.880Z,101507.75
2022-11-29T04:51:25.617Z,101505.25
2022-11-29T04:54:56.144Z,101500.00
2022-11-29T04:58:19.401Z,101513.88
2022-11-29T05:01:38.845Z,101510.41
2022-11-29T05:04:59.512Z,101511.25
2022-11-29T05:08:38.560Z,101519.06
2022-11-29T05:11:55.287Z,101521.63
2022-11-29T05:15:44.026Z,101529.38
2022-11-29T05:19:05.767Z,101526.00
2022-11-29T05:22:33.125Z,101522.53
2022-11-29T05:25:54.503Z,101522.66
2022-11-29T05:29:45.531Z,101539.09
2022-11-29T05:33:14.557Z,101527.84
2022-11-29T05:37:21.937Z,101534.72
2022-11-29T05:40:50.801Z,101533.00
2022-11-29T05:44:13.539Z,101545.13
2022-11-29T05:47:46.638Z,101544.25
2022-11-29T05:51:30.890Z,101550.34
2022-11-29T05:54:59.367Z,101556.38
2022-11-29T05:58:40.797Z,101559.81
2022-11-29T06:02:09.117Z,101566.75
2022-11-29T06:05:25.022Z,101562.47
2022-11-29T06:09:17.186Z,101561.56
2022-11-29T06:12:24.828Z,101577.16
2022-11-29T06:16:06.153Z,101573.72
2022-11-29T06:19:19.119Z,101578.91
2022-11-29T06:22:55.960Z,101588.44
2022-11-29T06:26:38.543Z,101580.69
2022-11-29T06:30:09.244Z,101585.00
2022-11-29T06:33:25.394Z,101591.91
2022-11-29T06:36:42.889Z,101601.50
2022-11-29T06:39:48.106Z,101598.06
2022-11-29T06:42:52.796Z,101603.25
2022-11-29T06:46:15.731Z,101609.28
2022-11-29T06:49:30.680Z,101624.03
2022-11-29T06:52:54.609Z,101615.41
2022-11-29T06:56:16.617Z,101619.72
2022-11-29T06:59:55.175Z,101619.72
2022-11-29T07:03:15.318Z,101623.13
2022-11-29T07:06:27.395Z,101636.16
2022-11-29T07:09:35.726Z,101642.19
2022-11-29T07:12:40.758Z,101640.50
2022-11-29T07:16:38.968Z,101641.34
2022-11-29T07:20:01.757Z,101649.16
2022-11-29T07:23:36.081Z,101660.47
2022-11-29T07:27:26.025Z,101654.31
2022-11-29T07:30:56.500Z,101662.94
2022-11-29T07:34:09.927Z,101669.88
2022-11-29T07:37:42.262Z,101666.44
2022-11-29T07:41:04.894Z,101653.47
2022-11-29T07:44:52.735Z,101663.88
2022-11-29T07:47:57.113Z,101668.16
2022-11-29T07:51:02.527Z,101673.41
2022-11-29T07:54:06.749Z,101677.75
2022-11-29T07:57:10.940Z,101676.09
2022-11-29T08:00:16.967Z,101682.97
2022-11-29T08:03:21.899Z,101685.56
2022-11-29T08:06:26.731Z,101690.78
2022-11-29T08:09:34.689Z,101690.78
2022-11-29T08:12:50.105Z,101685.53
2022-11-29T08:15:54.591Z,101682.94
2022-11-29T08:18:59.323Z,101688.16
2022-11-29T08:22:04.318Z,101685.56
2022-11-29T08:25:10.427Z,101690.72
2022-11-29T08:28:14.847Z,101689.84
2022-11-29T08:31:21.351Z,101684.66
2022-11-29T08:34:26.009Z,101688.06
2022-11-29T08:37:30.538Z,101687.22
2022-11-29T08:40:34.948Z,101692.34
2022-11-29T08:43:39.528Z,101690.63
2022-11-29T08:47:03.140Z,101688.03
2022-11-29T08:50:16.596Z,101688.03
2022-11-29T08:53:40.754Z,101694.91
2022-11-29T08:57:31.469Z,101695.81
2022-11-29T09:00:11.771Z,101690.53
2022-11-29T09:03:34.928Z,101700.94
2022-11-29T09:06:42.888Z,101704.41
2022-11-29T09:09:47.111Z,101706.13
2022-11-29T09:12:51.677Z,101708.69
2022-11-29T09:15:55.969Z,101706.09
2022-11-29T09:19:00.303Z,101704.47
2022-11-29T09:22:04.785Z,101707.94
2022-11-29T09:25:09.427Z,101706.22
2022-11-29T09:28:13.940Z,101702.69
2022-11-29T09:31:20.101Z,101707.84
2022-11-29T09:34:24.805Z,101713.94
2022-11-29T09:37:29.114Z,101729.50
2022-11-29T09:40:57.454Z,101730.38
2022-11-29T09:44:22.209Z,101737.28
2022-11-29T09:47:29.712Z,101739.88
2022-11-29T09:50:45.151Z,101740.66
2022-11-29T09:54:14.577Z,101735.47
2022-11-29T09:57:22.019Z,101742.47
2022-11-29T10:00:32.659Z,101740.69
2022-11-29T10:03:49.012Z,101740.69
2022-11-29T10:07:26.591Z,101756.22
2022-11-29T10:10:49.306Z,101745.88
2022-11-29T10:14:21.739Z,101744.16
2022-11-29T10:17:35.296Z,101737.16
2022-11-29T10:20:48.649Z,101740.59
2022-11-29T10:24:01.504Z,101745.81
2022-11-29T10:27:24.064Z,101741.44
2022-11-29T10:30:33.091Z,101737.97
2022-11-29T10:33:41.632Z,101748.22
2022-11-29T10:36:55.227Z,101747.38
2022-11-29T10:40:10.693Z,101745.63
2022-11-29T10:43:15.849Z,101761.22
2022-11-29T10:46:34.466Z,101760.44
2022-11-29T10:49:40.462Z,101763.00
2022-11-29T10:52:45.437Z,101759.56
2022-11-29T10:55:53.326Z,101768.19
2022-11-29T10:59:05.249Z,101753.38
2022-11-29T11:02:19.795Z,101758.53
2022-11-29T11:05:29.457Z,101756.75
2022-11-29T11:08:35.866Z,101748.91
2022-11-29T11:11:55.203Z,101752.28
2022-11-29T11:15:29.590Z,101758.28
2022-11-29T11:18:35.941Z,101752.25
2022-11-29T11:21:40.954Z,101759.22
2022-11-29T11:24:45.974Z,101750.53
2022-11-29T11:27:54.251Z,101753.91
2022-11-29T11:31:11.084Z,101760.78
2022-11-29T11:34:35.185Z,101756.50
2022-11-29T11:37:39.882Z,101757.41
2022-11-29T11:40:45.372Z,101762.56
2022-11-29T11:44:00.792Z,101762.53
2022-11-29T11:47:13.628Z,101753.97
2022-11-29T11:50:32.007Z,101758.38
2022-11-29T11:53:38.671Z,101755.66
2022-11-29T11:56:43.794Z,101757.38
2022-11-29T11:59:50.872Z,101764.31
2022-11-29T12:02:55.884Z,101764.31
2022-11-29T12:06:28.529Z,101760.84
2022-11-29T12:09:47.814Z,101765.22
2022-11-29T12:12:55.919Z,101764.41
2022-11-29T12:16:12.539Z,101763.59
2022-11-29T12:19:45.971Z,101768.00
2022-11-29T12:23:18.443Z,101778.44
2022-11-29T12:26:56.355Z,101780.19
2022-11-29T12:30:02.697Z,101776.72
2022-11-29T12:33:29.247Z,101781.91
2022-11-29T12:37:09.791Z,101791.53
2022-11-29T12:41:04.142Z,101795.78
2022-11-29T12:44:29.198Z,101793.19
2022-11-29T12:47:51.872Z,101791.47
2022-11-29T12:51:26.460Z,101804.47
2022-11-29T12:55:11.146Z,101797.53
2022-11-29T12:58:49.424Z,101795.78
2022-11-29T13:02:12.715Z,101794.94
2022-11-29T13:05:42.392Z,101795.75
2022-11-29T13:09:11.639Z,101802.69
2022-11-29T13:12:58.041Z,101809.59
2022-11-29T13:16:31.111Z,101806.94
2022-11-29T13:19:53.819Z,101818.22
2022-11-29T13:24:07.960Z,101820.88
2022-11-29T13:27:25.245Z,101817.41
2022-11-29T13:30:31.774Z,101822.72
2022-11-29T13:34:09.153Z,101824.44
2022-11-29T13:37:29.956Z,101829.63
2022-11-29T13:41:06.349Z,101821.84
2022-11-29T13:44:27.166Z,101829.59
2022-11-29T13:47:54.295Z,101827.00
2022-11-29T13:55:28.971Z,101823.50
2022-11-29T13:58:38.347Z,101826.09
2022-11-29T14:01:48.698Z,101830.44
2022-11-29T14:04:55.498Z,101841.72
2022-11-29T14:13:31.591Z,101835.72
2022-11-29T14:16:49.330Z,101835.78
2022-11-29T14:20:25.943Z,101836.63
2022-11-29T14:23:37.980Z,101837.56
2022-11-29T14:26:44.976Z,101846.22
2022-11-29T14:29:49.873Z,101847.88
2022-11-29T14:33:10.007Z,101850.47
2022-11-29T14:36:41.629Z,101852.22
2022-11-29T14:39:49.434Z,101846.13
2022-11-29T14:42:57.776Z,101850.44
2022-11-29T14:46:16.670Z,101854.81
2022-11-29T14:49:28.070Z,101856.56
2022-11-29T14:52:49.634Z,101856.59
2022-11-29T14:56:34.241Z,101864.38
2022-11-29T15:00:07.301Z,101863.50
2022-11-29T15:03:22.679Z,101860.09
2022-11-29T15:06:28.515Z,101866.16
2022-11-29T15:09:36.461Z,101867.91
2022-11-29T15:12:48.416Z,101879.19
2022-11-29T15:16:18.377Z,101889.53
2022-11-29T15:20:04.423Z,101880.94
2022-11-29T15:23:23.149Z,101885.22
2022-11-29T15:26:28.200Z,101888.72
2022-11-29T15:29:32.834Z,101886.06
2022-11-29T15:32:37.699Z,101879.09
2022-11-29T15:35:53.977Z,101884.34
2022-11-29T15:39:03.335Z,101881.72
2022-11-29T15:42:14.632Z,101888.69
2022-11-29T15:45:34.879Z,101896.50
2022-11-29T15:48:39.365Z,101890.44
2022-11-29T15:51:49.345Z,101899.97
2022-11-29T15:55:01.594Z,101898.25
2022-11-29T15:58:09.025Z,101906.91
2022-11-29T16:01:21.772Z,101912.13
2022-11-29T16:04:29.606Z,101901.72
2022-11-29T16:07:34.377Z,101912.13
2022-11-29T16:10:47.596Z,101908.66
2022-11-29T16:14:23.958Z,101919.09
2022-11-29T16:17:37.580Z,101920.88
2022-11-29T16:20:42.759Z,101924.34
2022-11-29T16:23:47.775Z,101921.72
2022-11-29T16:26:52.806Z,101926.13
2022-11-29T16:29:58.883Z,101928.69
2022-11-29T16:33:05.733Z,101937.34
2022-11-29T16:36:23.926Z,101940.81
2022-11-29T16:39:29.757Z,101939.94
2022-11-29T16:42:35.310Z,101939.06
2022-11-29T16:45:43.861Z,101939.91
2022-11-29T16:48:50.583Z,101941.66
2022-11-29T16:51:55.657Z,101941.72
2022-11-29T16:55:00.921Z,101939.06
2022-11-29T16:58:05.270Z,101932.97
2022-11-29T17:01:31.749Z,101938.22
2022-11-29T17:04:36.351Z,101939.97
2022-11-29T17:07:41.422Z,101947.78
2022-11-29T17:10:47.152Z,101950.34
2022-11-29T17:13:52.511Z,101960.75
2022-11-29T17:17:02.028Z,101955.56
2022-11-29T17:20:11.264Z,101948.59
2022-11-29T17:23:18.954Z,101964.19
2022-11-29T17:26:24.137Z,101971.13
2022-11-29T17:29:28.740Z,101969.38
2022-11-29T17:32:38.627Z,101967.72
2022-11-29T17:35:44.701Z,101975.44
2022-11-29T17:38:52.381Z,101974.63
2022-11-29T17:41:59.876Z,101986.75
2022-11-29T17:45:10.126Z,101981.56
2022-11-29T17:48:14.714Z,101991.97
2022-11-29T17:51:50.561Z,101997.19
2022-11-29T17:54:47.793Z,101996.31
2022-11-29T17:57:52.147Z,102001.53
2022-11-29T18:01:07.619Z,101999.81
2022-11-29T18:04:12.027Z,101996.38
2022-11-29T18:07:18.176Z,102008.50
2022-11-29T18:10:26.279Z,102006.75
2022-11-29T18:13:30.851Z,102011.97
2022-11-29T18:16:41.321Z,102015.44
2022-11-29T18:19:46.475Z,102016.28
2022-11-29T18:22:53.455Z,102021.56
2022-11-29T18:26:05.310Z,102020.66
2022-11-29T18:29:10.124Z,102018.91
2022-11-29T18:32:15.369Z,102025.84
2022-11-29T18:35:20.423Z,102033.66
2022-11-29T18:38:51.139Z,102031.97
2022-11-29T18:41:55.894Z,102035.41
2022-11-29T18:45:00.470Z,102033.69
2022-11-29T18:48:05.892Z,102032.81
2022-11-29T18:51:15.866Z,102035.41
2022-11-29T18:54:21.103Z,102033.69
2022-11-29T18:57:25.716Z,102030.25
2022-11-29T19:00:30.157Z,102039.78
2022-11-29T19:03:40.786Z,102044.09
2022-11-29T19:06:46.367Z,102045.00
2022-11-29T19:09:51.317Z,102045.84
2022-11-29T19:12:56.082Z,102042.41
2022-11-29T19:16:02.070Z,102045.00
2022-11-29T19:19:07.046Z,102045.88
2022-11-29T19:22:15.633Z,102050.19
2022-11-29T19:25:20.213Z,102047.56
2022-11-29T19:28:24.723Z,102055.41
2022-11-29T19:31:29.816Z,102052.78
2022-11-29T19:34:34.378Z,102064.09
2022-11-29T19:37:38.801Z,102059.72
2022-11-29T19:40:43.596Z,102056.25
2022-11-29T19:43:48.838Z,102051.88
2022-11-29T19:46:53.422Z,102051.91
2022-11-29T19:50:02.309Z,102052.78
2022-11-29T19:53:08.063Z,102051.03
2022-11-29T19:56:16.525Z,102058.84
2022-11-29T19:59:23.654Z,102064.91
2022-11-29T20:02:28.324Z,102066.66
2022-11-29T20:05:33.106Z,102077.97
2022-11-29T20:08:38.194Z,102076.25
2022-11-29T20:11:42.729Z,102077.09
2022-11-29T20:14:47.834Z,102072.72
2022-11-29T20:17:53.465Z,102079.69
2022-11-29T20:21:07.465Z,102080.53
2022-11-29T20:24:14.463Z,102078.00
2022-11-29T20:27:19.499Z,102071.00
2022-11-29T20:30:24.059Z,102071.88
2022-11-29T20:33:28.397Z,102077.94
2022-11-29T20:36:44.210Z,102072.72
2022-11-29T20:40:03.361Z,102072.75
2022-11-29T20:43:21.386Z,102071.00
2022-11-29T20:46:26.345Z,102079.69
2022-11-29T20:49:31.339Z,102082.28
2022-11-29T20:53:39.060Z,102085.75
2022-11-29T20:56:43.898Z,102093.56
2022-11-29T20:59:48.453Z,102088.41
2022-11-29T21:02:53.101Z,102085.81
2022-11-29T21:06:03.464Z,102096.22
2022-11-29T21:09:08.785Z,102096.22
2022-11-29T21:12:13.965Z,102103.13
2022-11-29T21:15:19.242Z,102104.00
2022-11-29T21:18:29.874Z,102103.13
2022-11-29T21:22:19.851Z,102108.34
2022-11-29T21:26:10.432Z,102108.34
2022-11-29T21:29:22.229Z,102111.81
2022-11-29T21:32:27.905Z,102107.47
2022-11-29T21:35:32.852Z,102110.09
2022-11-29T21:38:37.524Z,102108.34
2022-11-29T21:41:42.186Z,102117.03
2022-11-29T21:44:47.163Z,102105.72
2022-11-29T21:47:51.907Z,102110.06
2022-11-29T21:50:56.684Z,102103.09
2022-11-29T21:54:03.201Z,102103.09
2022-11-29T21:57:07.728Z,102103.09
2022-11-29T22:00:12.815Z,102099.66
2022-11-29T22:03:17.571Z,102103.13
2022-11-29T22:06:24.328Z,102113.53
2022-11-29T22:09:29.033Z,102115.28
2022-11-29T22:12:34.857Z,102114.44
2022-11-29T22:15:40.070Z,102114.44
2022-11-29T22:18:47.550Z,102115.31
2022-11-29T22:21:55.795Z,102113.53
2022-11-29T22:25:01.556Z,102111.81
2022-11-29T22:28:09.054Z,102120.50
2022-11-29T22:31:13.857Z,102120.50
2022-11-29T22:34:24.240Z,102117.03
2022-11-29T22:37:29.088Z,102113.59
2022-11-29T22:40:33.901Z,102113.59
2022-11-29T22:43:40.710Z,102113.59
2022-11-29T22:46:48.092Z,102116.16
2022-11-29T22:49:55.423Z,102117.91
2022-11-29T22:53:00.118Z,102119.63
2022-11-29T22:56:09.005Z,102122.25
2022-11-29T22:59:20.008Z,102123.13
2022-11-29T23:02:24.822Z,102124.84
2022-11-29T23:05:32.246Z,102121.41
2022-11-29T23:08:38.759Z,102120.53
2022-11-29T23:11:45.804Z,102129.22
2022-11-29T23:14:55.839Z,102129.22
2022-11-29T23:18:01.026Z,102135.28
2022-11-29T23:21:13.877Z,102141.34
2022-11-29T23:24:18.496Z,102138.78
2022-11-29T23:27:23.882Z,102142.22
2022-11-29T23:30:28.039Z,102143.94
2022-11-29T23:33:32.405Z,102145.69
2022-11-29T23:36:36.911Z,102145.69
2022-11-29T23:39:41.191Z,102146.53
2022-11-29T23:42:50.433Z,102146.53
2022-11-29T23:45:54.840Z,102137.00
2022-11-29T23:48:59.172Z,102139.63
2022-11-29T23:52:03.357Z,102137.88
2022-11-29T23:55:09.266Z,102138.72
2022-11-29T23:58:14.055Z,102141.34
